sensor_id;sensor_type;location;lat;lon;timestamp;pressure;altitude;pressure_sealevel;temperature;humidity
68654;BME280;55636;51.108;13.622;2023-12-14T00:00:45;99152.25;;;7.03;65.60
68654;BME280;55636;51.108;13.622;2023-12-14T00:01:48;99141.25;;;7.03;65.58
68654;BME280;55636;51.108;13.622;2023-12-14T00:02:51;99150.59;;;7.02;65.66
68654;BME280;55636;51.108;13.622;2023-12-14T00:03:53;99157.75;;;7.03;65.70
68654;BME280;55636;51.108;13.622;2023-12-14T00:04:56;99156.06;;;7.02;65.64
68654;BME280;55636;51.108;13.622;2023-12-14T00:05:58;99156.06;;;7.02;65.63
68654;BME280;55636;51.108;13.622;2023-12-14T00:07:01;99156.94;;;7.02;65.67
68654;BME280;55636;51.108;13.622;2023-12-14T00:08:03;99158.81;;;7.02;65.72
68654;BME280;55636;51.108;13.622;2023-12-14T00:09:06;99164.31;;;7.02;65.61
68654;BME280;55636;51.108;13.622;2023-12-14T00:10:10;99160.75;;;7.01;65.51
68654;BME280;55636;51.108;13.622;2023-12-14T00:11:14;99160.75;;;7.01;65.57
68654;BME280;55636;51.108;13.622;2023-12-14T00:12:16;99162.94;;;6.99;65.55
68654;BME280;55636;51.108;13.622;2023-12-14T00:13:19;99159.94;;;7.01;65.54
68654;BME280;55636;51.108;13.622;2023-12-14T00:14:23;99160.19;;;6.99;65.50
68654;BME280;55636;51.108;13.622;2023-12-14T00:15:25;99162.94;;;6.99;65.49
68654;BME280;55636;51.108;13.622;2023-12-14T00:16:28;99162.94;;;6.99;65.62
68654;BME280;55636;51.108;13.622;2023-12-14T00:17:30;99167.59;;;6.99;65.64
68654;BME280;55636;51.108;13.622;2023-12-14T00:18:33;99164.88;;;6.99;65.65
68654;BME280;55636;51.108;13.622;2023-12-14T00:19:35;99159.09;;;7.00;65.71
68654;BME280;55636;51.108;13.622;2023-12-14T00:20:38;99164.03;;;6.98;65.61
68654;BME280;55636;51.108;13.622;2023-12-14T00:21:40;99168.69;;;6.98;65.57
68654;BME280;55636;51.108;13.622;2023-12-14T00:22:43;99167.88;;;6.97;65.55
68654;BME280;55636;51.108;13.622;2023-12-14T00:23:45;99171.44;;;6.98;65.61
68654;BME280;55636;51.108;13.622;2023-12-14T00:24:48;99167.03;;;6.97;65.58
68654;BME280;55636;51.108;13.622;2023-12-14T00:25:50;99159.06;;;6.95;65.51
68654;BME280;55636;51.108;13.622;2023-12-14T00:26:53;99167.31;;;6.95;65.63
68654;BME280;55636;51.108;13.622;2023-12-14T00:27:55;99168.97;;;6.96;65.64
68654;BME280;55636;51.108;13.622;2023-12-14T00:28:57;99161.00;;;6.95;65.47
68654;BME280;55636;51.108;13.622;2023-12-14T00:30:03;99175.53;;;6.95;65.53
68654;BME280;55636;51.108;13.622;2023-12-14T00:31:06;99172.78;;;6.95;65.49
68654;BME280;55636;51.108;13.622;2023-12-14T00:32:08;99175.53;;;6.95;65.51
68654;BME280;55636;51.108;13.622;2023-12-14T00:33:11;99176.63;;;6.94;65.44
68654;BME280;55636;51.108;13.622;2023-12-14T00:34:14;99178.56;;;6.94;65.56
68654;BME280;55636;51.108;13.622;2023-12-14T00:35:18;99175.81;;;6.94;65.54
68654;BME280;55636;51.108;13.622;2023-12-14T00:36:20;99180.50;;;6.93;65.69
68654;BME280;55636;51.108;13.622;2023-12-14T00:37:23;99185.97;;;6.93;65.51
68654;BME280;55636;51.108;13.622;2023-12-14T00:38:25;99184.03;;;6.94;65.50
68654;BME280;55636;51.108;13.622;2023-12-14T00:39:28;99187.06;;;6.92;65.50
68654;BME280;55636;51.108;13.622;2023-12-14T00:40:30;99187.88;;;6.93;65.48
68654;BME280;55636;51.108;13.622;2023-12-14T00:41:33;99190.63;;;6.93;65.50
68654;BME280;55636;51.108;13.622;2023-12-14T00:42:35;99192.56;;;6.92;65.51
68654;BME280;55636;51.108;13.622;2023-12-14T00:43:38;99192.56;;;6.92;65.54
68654;BME280;55636;51.108;13.622;2023-12-14T00:44:40;99198.84;;;6.93;65.53
68654;BME280;55636;51.108;13.622;2023-12-14T00:45:43;99196.13;;;6.93;65.48
68654;BME280;55636;51.108;13.622;2023-12-14T00:46:45;99193.38;;;6.93;65.40
68654;BME280;55636;51.108;13.622;2023-12-14T00:47:47;99190.91;;;6.91;65.44
68654;BME280;55636;51.108;13.622;2023-12-14T00:48:50;99193.63;;;6.91;65.51
68654;BME280;55636;51.108;13.622;2023-12-14T00:49:52;99199.94;;;6.92;65.46
68654;BME280;55636;51.108;13.622;2023-12-14T00:50:55;99201.88;;;6.91;65.50
68654;BME280;55636;51.108;13.622;2023-12-14T00:51:58;99199.41;;;6.89;65.34
68654;BME280;55636;51.108;13.622;2023-12-14T00:53:00;99206.28;;;6.92;65.48
68654;BME280;55636;51.108;13.622;2023-12-14T00:54:04;99201.06;;;6.90;65.46
68654;BME280;55636;51.108;13.622;2023-12-14T00:55:07;99203.81;;;6.90;65.50
68654;BME280;55636;51.108;13.622;2023-12-14T00:56:09;99199.41;;;6.89;65.33
68654;BME280;55636;51.108;13.622;2023-12-14T00:57:12;99202.16;;;6.89;65.33
68654;BME280;55636;51.108;13.622;2023-12-14T00:58:14;99210.94;;;6.92;65.45
68654;BME280;55636;51.108;13.622;2023-12-14T00:59:17;99215.88;;;6.89;65.33
68654;BME280;55636;51.108;13.622;2023-12-14T01:00:19;99219.44;;;6.90;65.41
68654;BME280;55636;51.108;13.622;2023-12-14T01:01:22;99221.38;;;6.89;65.42
68654;BME280;55636;51.108;13.622;2023-12-14T01:02:24;99216.69;;;6.90;65.41
68654;BME280;55636;51.108;13.622;2023-12-14T01:03:26;99223.03;;;6.90;65.35
68654;BME280;55636;51.108;13.622;2023-12-14T01:04:29;99224.09;;;6.89;65.30
68654;BME280;55636;51.108;13.622;2023-12-14T01:05:31;99224.66;;;6.92;65.31
68654;BME280;55636;51.108;13.622;2023-12-14T01:06:34;99221.38;;;6.89;65.21
68654;BME280;55636;51.108;13.622;2023-12-14T01:07:36;99225.19;;;6.88;65.18
68654;BME280;55636;51.108;13.622;2023-12-14T01:08:38;99227.66;;;6.90;65.33
68654;BME280;55636;51.108;13.622;2023-12-14T01:09:41;99228.50;;;6.90;65.27
68654;BME280;55636;51.108;13.622;2023-12-14T01:10:43;99238.66;;;6.90;65.38
68654;BME280;55636;51.108;13.622;2023-12-14T01:11:46;99237.84;;;6.89;65.42
68654;BME280;55636;51.108;13.622;2023-12-14T01:12:49;99234.28;;;6.89;65.38
68654;BME280;55636;51.108;13.622;2023-12-14T01:13:52;99238.91;;;6.88;65.40
68654;BME280;55636;51.108;13.622;2023-12-14T01:14:54;99241.41;;;6.90;65.39
68654;BME280;55636;51.108;13.622;2023-12-14T01:15:57;99236.16;;;6.88;65.26
68654;BME280;55636;51.108;13.622;2023-12-14T01:16:59;99240.59;;;6.89;65.51
68654;BME280;55636;51.108;13.622;2023-12-14T01:18:02;99248.00;;;6.89;65.50
68654;BME280;55636;51.108;13.622;2023-12-14T01:19:04;99250.47;;;6.90;65.37
68654;BME280;55636;51.108;13.622;2023-12-14T01:20:08;99239.50;;;6.90;65.64
68654;BME280;55636;51.108;13.622;2023-12-14T01:21:11;99247.72;;;6.90;65.51
68654;BME280;55636;51.108;13.622;2023-12-14T01:22:14;99240.59;;;6.89;65.52
68654;BME280;55636;51.108;13.622;2023-12-14T01:23:17;99246.88;;;6.90;65.42
68654;BME280;55636;51.108;13.622;2023-12-14T01:24:20;99251.28;;;6.91;65.49
68654;BME280;55636;51.108;13.622;2023-12-14T01:25:22;99250.22;;;6.92;65.59
68654;BME280;55636;51.108;13.622;2023-12-14T01:26:24;99256.78;;;6.91;65.64
68654;BME280;55636;51.108;13.622;2023-12-14T01:27:27;99255.13;;;6.90;65.64
68654;BME280;55636;51.108;13.622;2023-12-14T01:28:29;99254.03;;;6.91;65.51
68654;BME280;55636;51.108;13.622;2023-12-14T01:29:32;99251.56;;;6.89;65.48
68654;BME280;55636;51.108;13.622;2023-12-14T01:30:34;99261.47;;;6.90;65.60
68654;BME280;55636;51.108;13.622;2023-12-14T01:31:37;99253.22;;;6.90;65.34
68654;BME280;55636;51.108;13.622;2023-12-14T01:32:39;99255.97;;;6.90;65.42
68654;BME280;55636;51.108;13.622;2023-12-14T01:33:42;99249.38;;;6.92;65.42
68654;BME280;55636;51.108;13.622;2023-12-14T01:34:44;99258.44;;;6.92;65.44
68654;BME280;55636;51.108;13.622;2023-12-14T01:35:47;99260.34;;;6.92;65.46
68654;BME280;55636;51.108;13.622;2023-12-14T01:36:49;99249.38;;;6.92;65.44
68654;BME280;55636;51.108;13.622;2023-12-14T01:37:52;99252.09;;;6.92;65.51
68654;BME280;55636;51.108;13.622;2023-12-14T01:38:54;99256.78;;;6.91;65.48
68654;BME280;55636;51.108;13.622;2023-12-14T01:39:57;99257.59;;;6.92;65.43
68654;BME280;55636;51.108;13.622;2023-12-14T01:40:59;99262.28;;;6.91;65.40
68654;BME280;55636;51.108;13.622;2023-12-14T01:42:03;99263.09;;;6.92;65.54
68654;BME280;55636;51.108;13.622;2023-12-14T01:43:06;99263.94;;;6.92;65.39
68654;BME280;55636;51.108;13.622;2023-12-14T01:44:10;99271.09;;;6.93;65.54
68654;BME280;55636;51.108;13.622;2023-12-14T01:45:12;99263.94;;;6.92;65.53
68654;BME280;55636;51.108;13.622;2023-12-14T01:46:18;99263.09;;;6.92;65.51
68654;BME280;55636;51.108;13.622;2023-12-14T01:47:21;99270.50;;;6.91;65.51
68654;BME280;55636;51.108;13.622;2023-12-14T01:48:24;99268.34;;;6.93;65.49
68654;BME280;55636;51.108;13.622;2023-12-14T01:49:27;99265.84;;;6.92;65.43
68654;BME280;55636;51.108;13.622;2023-12-14T01:50:29;99269.16;;;6.94;65.34
68654;BME280;55636;51.108;13.622;2023-12-14T01:51:32;99274.06;;;6.92;65.36
68654;BME280;55636;51.108;13.622;2023-12-14T01:52:36;99272.16;;;6.92;65.39
68654;BME280;55636;51.108;13.622;2023-12-14T01:53:38;99267.50;;;6.93;65.53
68654;BME280;55636;51.108;13.622;2023-12-14T01:54:42;99276.56;;;6.93;65.69
68654;BME280;55636;51.108;13.622;2023-12-14T01:55:45;99276.56;;;6.93;65.54
68654;BME280;55636;51.108;13.622;2023-12-14T01:56:48;99272.16;;;6.92;65.44
68654;BME280;55636;51.108;13.622;2023-12-14T01:57:50;99272.16;;;6.92;65.51
68654;BME280;55636;51.108;13.622;2023-12-14T01:58:53;99274.91;;;6.92;65.41
68654;BME280;55636;51.108;13.622;2023-12-14T01:59:55;99284.81;;;6.93;65.37
68654;BME280;55636;51.108;13.622;2023-12-14T02:01:07;99286.72;;;6.93;65.33
68654;BME280;55636;51.108;13.622;2023-12-14T02:02:11;99276.81;;;6.92;65.63
68654;BME280;55636;51.108;13.622;2023-12-14T02:03:15;99283.97;;;6.93;65.42
68654;BME280;55636;51.108;13.622;2023-12-14T02:04:17;99279.31;;;6.93;65.41
68654;BME280;55636;51.108;13.622;2023-12-14T02:05:21;99286.72;;;6.93;65.38
68654;BME280;55636;51.108;13.622;2023-12-14T02:06:25;99276.81;;;6.92;65.53
68654;BME280;55636;51.108;13.622;2023-12-14T02:07:27;99288.66;;;6.92;65.44
68654;BME280;55636;51.108;13.622;2023-12-14T02:08:30;99285.06;;;6.92;65.54
68654;BME280;55636;51.108;13.622;2023-12-14T02:09:32;99288.66;;;6.92;65.41
68654;BME280;55636;51.108;13.622;2023-12-14T02:10:35;99279.56;;;6.92;65.42
68654;BME280;55636;51.108;13.622;2023-12-14T02:11:37;99283.97;;;6.93;65.22
68654;BME280;55636;51.108;13.622;2023-12-14T02:12:39;99283.97;;;6.93;65.30
68654;BME280;55636;51.108;13.622;2023-12-14T02:13:42;99276.00;;;6.91;65.27
68654;BME280;55636;51.108;13.622;2023-12-14T02:14:45;99289.72;;;6.91;65.26
68654;BME280;55636;51.108;13.622;2023-12-14T02:15:47;99288.91;;;6.90;65.12
68654;BME280;55636;51.108;13.622;2023-12-14T02:16:50;99286.16;;;6.90;65.23
68654;BME280;55636;51.108;13.622;2023-12-14T02:17:53;99283.41;;;6.90;65.12
68654;BME280;55636;51.108;13.622;2023-12-14T02:18:55;99292.47;;;6.91;65.10
68654;BME280;55636;51.108;13.622;2023-12-14T02:19:59;99283.41;;;6.90;65.16
68654;BME280;55636;51.108;13.622;2023-12-14T02:21:03;99290.53;;;6.92;65.23
68654;BME280;55636;51.108;13.622;2023-12-14T02:22:05;99286.16;;;6.90;65.13
68654;BME280;55636;51.108;13.622;2023-12-14T02:23:08;99294.41;;;6.90;65.22
68654;BME280;55636;51.108;13.622;2023-12-14T02:24:11;99290.00;;;6.89;65.17
68654;BME280;55636;51.108;13.622;2023-12-14T02:25:13;99290.81;;;6.90;65.18
68654;BME280;55636;51.108;13.622;2023-12-14T02:26:16;99291.94;;;6.89;65.11
68654;BME280;55636;51.108;13.622;2023-12-14T02:27:18;99295.50;;;6.89;65.22
68654;BME280;55636;51.108;13.622;2023-12-14T02:28:21;99298.50;;;6.88;65.17
68654;BME280;55636;51.108;13.622;2023-12-14T02:29:23;99305.88;;;6.87;65.19
68654;BME280;55636;51.108;13.622;2023-12-14T02:30:26;99309.75;;;6.86;65.26
68654;BME280;55636;51.108;13.622;2023-12-14T02:31:28;99307.56;;;6.88;65.34
68654;BME280;55636;51.108;13.622;2023-12-14T02:32:31;99305.88;;;6.87;65.22
68654;BME280;55636;51.108;13.622;2023-12-14T02:33:35;99301.50;;;6.86;65.23
68654;BME280;55636;51.108;13.622;2023-12-14T02:34:38;99307.00;;;6.86;65.38
68654;BME280;55636;51.108;13.622;2023-12-14T02:35:42;99306.16;;;6.86;65.29
68654;BME280;55636;51.108;13.622;2023-12-14T02:36:45;99304.25;;;6.86;65.31
68654;BME280;55636;51.108;13.622;2023-12-14T02:37:47;99300.66;;;6.86;65.31
68654;BME280;55636;51.108;13.622;2023-12-14T02:38:50;99312.72;;;6.85;65.32
68654;BME280;55636;51.108;13.622;2023-12-14T02:39:53;99310.84;;;6.85;65.26
68654;BME280;55636;51.108;13.622;2023-12-14T02:40:55;99309.97;;;6.85;65.46
68654;BME280;55636;51.108;13.622;2023-12-14T02:41:58;99308.09;;;6.85;65.46
68654;BME280;55636;51.108;13.622;2023-12-14T02:43:00;99311.91;;;6.84;65.43
68654;BME280;55636;51.108;13.622;2023-12-14T02:44:03;99312.72;;;6.85;65.55
68654;BME280;55636;51.108;13.622;2023-12-14T02:45:07;99313.56;;;6.85;65.46
68654;BME280;55636;51.108;13.622;2023-12-14T02:46:10;99302.59;;;6.85;65.42
68654;BME280;55636;51.108;13.622;2023-12-14T02:47:14;99313.56;;;6.85;65.52
68654;BME280;55636;51.108;13.622;2023-12-14T02:48:16;99310.84;;;6.85;65.45
68654;BME280;55636;51.108;13.622;2023-12-14T02:49:19;99315.47;;;6.85;65.48
68654;BME280;55636;51.108;13.622;2023-12-14T02:50:21;99313.56;;;6.85;65.49
68654;BME280;55636;51.108;13.622;2023-12-14T02:51:23;99319.06;;;6.85;65.59
68654;BME280;55636;51.108;13.622;2023-12-14T02:52:26;99316.31;;;6.85;65.69
68654;BME280;55636;51.108;13.622;2023-12-14T02:53:29;99321.81;;;6.85;65.59
68654;BME280;55636;51.108;13.622;2023-12-14T02:54:32;99317.41;;;6.84;65.58
68654;BME280;55636;51.108;13.622;2023-12-14T02:55:34;99323.47;;;6.86;65.58
68654;BME280;55636;51.108;13.622;2023-12-14T02:56:37;99322.63;;;6.86;65.66
68654;BME280;55636;51.108;13.622;2023-12-14T02:57:39;99322.63;;;6.86;65.58
68654;BME280;55636;51.108;13.622;2023-12-14T02:58:41;99323.72;;;6.85;65.50
68654;BME280;55636;51.108;13.622;2023-12-14T02:59:45;99321.81;;;6.85;65.59
68654;BME280;55636;51.108;13.622;2023-12-14T03:00:47;99329.19;;;6.85;65.52
68654;BME280;55636;51.108;13.622;2023-12-14T03:01:50;99328.97;;;6.86;65.64
68654;BME280;55636;51.108;13.622;2023-12-14T03:02:52;99325.38;;;6.86;65.52
68654;BME280;55636;51.108;13.622;2023-12-14T03:03:55;99335.28;;;6.87;65.63
68654;BME280;55636;51.108;13.622;2023-12-14T03:04:57;99330.06;;;6.85;65.60
68654;BME280;55636;51.108;13.622;2023-12-14T03:06:00;99333.59;;;6.86;65.62
68654;BME280;55636;51.108;13.622;2023-12-14T03:07:03;99334.47;;;6.86;65.60
68654;BME280;55636;51.108;13.622;2023-12-14T03:08:05;99330.59;;;6.87;65.59
68654;BME280;55636;51.108;13.622;2023-12-14T03:09:07;99330.88;;;6.86;65.65
68654;BME280;55636;51.108;13.622;2023-12-14T03:10:10;99331.72;;;6.86;65.51
68654;BME280;55636;51.108;13.622;2023-12-14T03:11:21;99334.47;;;6.86;65.58
68654;BME280;55636;51.108;13.622;2023-12-14T03:12:24;99339.09;;;6.86;65.64
68654;BME280;55636;51.108;13.622;2023-12-14T03:13:28;99339.09;;;6.86;65.57
68654;BME280;55636;51.108;13.622;2023-12-14T03:14:32;99350.09;;;6.86;65.68
68654;BME280;55636;51.108;13.622;2023-12-14T03:15:35;99348.19;;;6.86;65.51
68654;BME280;55636;51.108;13.622;2023-12-14T03:16:37;99350.94;;;6.86;65.62
68654;BME280;55636;51.108;13.622;2023-12-14T03:17:40;99347.34;;;6.86;65.70
68654;BME280;55636;51.108;13.622;2023-12-14T03:18:42;99349.25;;;6.85;65.73
68654;BME280;55636;51.108;13.622;2023-12-14T03:19:45;99350.09;;;6.86;65.78
68654;BME280;55636;51.108;13.622;2023-12-14T03:20:47;99361.06;;;6.86;65.66
68654;BME280;55636;51.108;13.622;2023-12-14T03:21:50;99358.91;;;6.88;65.82
68654;BME280;55636;51.108;13.622;2023-12-14T03:22:52;99351.75;;;6.87;65.78
68654;BME280;55636;51.108;13.622;2023-12-14T03:23:56;99360.25;;;6.85;65.86
68654;BME280;55636;51.108;13.622;2023-12-14T03:25:00;99359.16;;;6.86;65.67
68654;BME280;55636;51.108;13.622;2023-12-14T03:26:02;99358.06;;;6.87;65.84
68654;BME280;55636;51.108;13.622;2023-12-14T03:27:05;99359.97;;;6.87;65.97
68654;BME280;55636;51.108;13.622;2023-12-14T03:28:07;99361.91;;;6.86;65.74
68654;BME280;55636;51.108;13.622;2023-12-14T03:29:10;99364.66;;;6.86;65.85
68654;BME280;55636;51.108;13.622;2023-12-14T03:30:13;99366.56;;;6.86;65.94
68654;BME280;55636;51.108;13.622;2023-12-14T03:31:15;99361.06;;;6.86;65.86
68654;BME280;55636;51.108;13.622;2023-12-14T03:32:18;99367.41;;;6.86;65.97
68654;BME280;55636;51.108;13.622;2023-12-14T03:33:22;99367.41;;;6.86;65.94
68654;BME280;55636;51.108;13.622;2023-12-14T03:34:24;99371.78;;;6.87;66.01
68654;BME280;55636;51.108;13.622;2023-12-14T03:35:27;99380.00;;;6.87;65.87
68654;BME280;55636;51.108;13.622;2023-12-14T03:36:30;99374.53;;;6.87;65.79
68654;BME280;55636;51.108;13.622;2023-12-14T03:37:32;99383.59;;;6.88;65.95
68654;BME280;55636;51.108;13.622;2023-12-14T03:38:38;99384.41;;;6.88;65.91
68654;BME280;55636;51.108;13.622;2023-12-14T03:39:40;99384.41;;;6.88;66.01
68654;BME280;55636;51.108;13.622;2023-12-14T03:40:43;99387.16;;;6.88;65.93
68654;BME280;55636;51.108;13.622;2023-12-14T03:41:46;99387.16;;;6.88;65.96
68654;BME280;55636;51.108;13.622;2023-12-14T03:42:48;99388.00;;;6.89;65.96
68654;BME280;55636;51.108;13.622;2023-12-14T03:43:50;99393.50;;;6.89;65.95
68654;BME280;55636;51.108;13.622;2023-12-14T03:44:53;99396.25;;;6.89;65.93
68654;BME280;55636;51.108;13.622;2023-12-14T03:45:55;99393.50;;;6.89;65.87
68654;BME280;55636;51.108;13.622;2023-12-14T03:46:58;99397.88;;;6.90;65.90
68654;BME280;55636;51.108;13.622;2023-12-14T03:48:02;99394.31;;;6.89;65.88
68654;BME280;55636;51.108;13.622;2023-12-14T03:49:05;99395.13;;;6.90;65.94
68654;BME280;55636;51.108;13.622;2023-12-14T03:50:11;99399.81;;;6.89;65.91
68654;BME280;55636;51.108;13.622;2023-12-14T03:51:17;99399.81;;;6.89;66.10
68654;BME280;55636;51.108;13.622;2023-12-14T03:52:20;99399.81;;;6.89;66.05
68654;BME280;55636;51.108;13.622;2023-12-14T03:53:22;99404.22;;;6.90;66.02
68654;BME280;55636;51.108;13.622;2023-12-14T03:54:25;99403.38;;;6.90;66.00
68654;BME280;55636;51.108;13.622;2023-12-14T03:55:27;99404.22;;;6.90;65.83
68654;BME280;55636;51.108;13.622;2023-12-14T03:56:29;99405.03;;;6.91;66.00
68654;BME280;55636;51.108;13.622;2023-12-14T03:57:33;99397.06;;;6.89;65.84
68654;BME280;55636;51.108;13.622;2023-12-14T03:58:35;99410.53;;;6.91;66.00
68654;BME280;55636;51.108;13.622;2023-12-14T03:59:40;99409.72;;;6.90;65.97
68654;BME280;55636;51.108;13.622;2023-12-14T04:00:43;99414.34;;;6.90;66.07
68654;BME280;55636;51.108;13.622;2023-12-14T04:01:45;99406.97;;;6.90;66.01
68654;BME280;55636;51.108;13.622;2023-12-14T04:02:48;99408.88;;;6.90;66.00
68654;BME280;55636;51.108;13.622;2023-12-14T04:03:50;99411.34;;;6.92;66.06
68654;BME280;55636;51.108;13.622;2023-12-14T04:04:53;99421.50;;;6.91;66.08
68654;BME280;55636;51.108;13.622;2023-12-14T04:05:55;99422.31;;;6.92;65.90
68654;BME280;55636;51.108;13.622;2023-12-14T04:06:58;99426.72;;;6.93;65.95
68654;BME280;55636;51.108;13.622;2023-12-14T04:08:01;99419.56;;;6.92;65.92
68654;BME280;55636;51.108;13.622;2023-12-14T04:09:03;99425.06;;;6.92;65.99
68654;BME280;55636;51.108;13.622;2023-12-14T04:10:10;99425.91;;;6.92;66.07
68654;BME280;55636;51.108;13.622;2023-12-14T04:11:12;99428.66;;;6.92;66.01
68654;BME280;55636;51.108;13.622;2023-12-14T04:12:15;99433.06;;;6.93;66.10
68654;BME280;55636;51.108;13.622;2023-12-14T04:13:18;99421.50;;;6.91;66.11
68654;BME280;55636;51.108;13.622;2023-12-14T04:14:20;99420.69;;;6.90;66.11
68654;BME280;55636;51.108;13.622;2023-12-14T04:15:22;99424.00;;;6.93;66.24
68654;BME280;55636;51.108;13.622;2023-12-14T04:16:25;99422.09;;;6.93;66.24
68654;BME280;55636;51.108;13.622;2023-12-14T04:17:27;99428.94;;;6.90;66.23
68654;BME280;55636;51.108;13.622;2023-12-14T04:18:30;99424.25;;;6.91;66.25
68654;BME280;55636;51.108;13.622;2023-12-14T04:19:33;99425.06;;;6.92;66.27
68654;BME280;55636;51.108;13.622;2023-12-14T04:20:35;99424.25;;;6.91;66.32
68654;BME280;55636;51.108;13.622;2023-12-14T04:21:37;99433.31;;;6.92;66.33
68654;BME280;55636;51.108;13.622;2023-12-14T04:22:40;99437.97;;;6.91;66.38
68654;BME280;55636;51.108;13.622;2023-12-14T04:23:43;99437.16;;;6.90;66.42
68654;BME280;55636;51.108;13.622;2023-12-14T04:24:45;99432.50;;;6.91;66.45
68654;BME280;55636;51.108;13.622;2023-12-14T04:25:47;99446.22;;;6.91;66.46
68654;BME280;55636;51.108;13.622;2023-12-14T04:26:50;99440.72;;;6.91;66.49
68654;BME280;55636;51.108;13.622;2023-12-14T04:27:52;99443.47;;;6.91;66.48
68654;BME280;55636;51.108;13.622;2023-12-14T04:28:54;99447.03;;;6.92;66.50
68654;BME280;55636;51.108;13.622;2023-12-14T04:29:58;99437.97;;;6.91;66.49
68654;BME280;55636;51.108;13.622;2023-12-14T04:31:00;99448.69;;;6.93;66.43
68654;BME280;55636;51.108;13.622;2023-12-14T04:32:04;99446.22;;;6.91;66.49
68654;BME280;55636;51.108;13.622;2023-12-14T04:33:06;99447.03;;;6.92;66.46
68654;BME280;55636;51.108;13.622;2023-12-14T04:34:09;99443.47;;;6.91;66.41
68654;BME280;55636;51.108;13.622;2023-12-14T04:35:16;99446.22;;;6.91;66.57
68654;BME280;55636;51.108;13.622;2023-12-14T04:36:19;99442.66;;;6.90;66.61
68654;BME280;55636;51.108;13.622;2023-12-14T04:37:21;99443.47;;;6.91;66.55
68654;BME280;55636;51.108;13.622;2023-12-14T04:38:24;99450.63;;;6.92;66.61
68654;BME280;55636;51.108;13.622;2023-12-14T04:39:27;99453.38;;;6.92;66.57
68654;BME280;55636;51.108;13.622;2023-12-14T04:40:29;99450.63;;;6.92;66.54
68654;BME280;55636;51.108;13.622;2023-12-14T04:41:32;99456.94;;;6.93;66.66
68654;BME280;55636;51.108;13.622;2023-12-14T04:42:34;99453.38;;;6.92;66.60
68654;BME280;55636;51.108;13.622;2023-12-14T04:43:37;99458.59;;;6.94;66.70
68654;BME280;55636;51.108;13.622;2023-12-14T04:44:39;99454.78;;;6.95;66.55
68654;BME280;55636;51.108;13.622;2023-12-14T04:45:42;99460.53;;;6.93;66.70
68654;BME280;55636;51.108;13.622;2023-12-14T04:46:44;99464.09;;;6.94;66.62
68654;BME280;55636;51.108;13.622;2023-12-14T04:47:47;99479.50;;;6.95;66.70
68654;BME280;55636;51.108;13.622;2023-12-14T04:48:50;99477.81;;;6.94;66.68
68654;BME280;55636;51.108;13.622;2023-12-14T04:49:53;99479.50;;;6.95;66.63
68654;BME280;55636;51.108;13.622;2023-12-14T04:50:55;99477.81;;;6.94;66.69
68654;BME280;55636;51.108;13.622;2023-12-14T04:51:58;99486.88;;;6.94;66.63
68654;BME280;55636;51.108;13.622;2023-12-14T04:53:00;99481.38;;;6.94;66.64
68654;BME280;55636;51.108;13.622;2023-12-14T04:54:04;99485.78;;;6.95;66.62
68654;BME280;55636;51.108;13.622;2023-12-14T04:55:07;99490.22;;;6.96;66.66
68654;BME280;55636;51.108;13.622;2023-12-14T04:56:12;99484.13;;;6.94;66.72
68654;BME280;55636;51.108;13.622;2023-12-14T04:57:15;99487.72;;;6.95;66.66
68654;BME280;55636;51.108;13.622;2023-12-14T04:58:18;99495.13;;;6.94;66.75
68654;BME280;55636;51.108;13.622;2023-12-14T04:59:21;99497.84;;;6.94;66.84
68654;BME280;55636;51.108;13.622;2023-12-14T05:00:23;99488.81;;;6.94;66.80
68654;BME280;55636;51.108;13.622;2023-12-14T05:01:26;99502.28;;;6.95;66.85
68654;BME280;55636;51.108;13.622;2023-12-14T05:02:34;99501.44;;;6.95;66.86
68654;BME280;55636;51.108;13.622;2023-12-14T05:03:36;99498.72;;;6.95;66.83
68654;BME280;55636;51.108;13.622;2023-12-14T05:04:39;99502.84;;;6.97;66.88
68654;BME280;55636;51.108;13.622;2023-12-14T05:05:41;99505.59;;;6.97;66.83
68654;BME280;55636;51.108;13.622;2023-12-14T05:06:44;99504.75;;;6.97;66.90
68654;BME280;55636;51.108;13.622;2023-12-14T05:07:46;99512.19;;;6.96;66.92
68654;BME280;55636;51.108;13.622;2023-12-14T05:08:49;99505.88;;;6.96;67.00
68654;BME280;55636;51.108;13.622;2023-12-14T05:09:51;99510.25;;;6.97;66.94
68654;BME280;55636;51.108;13.622;2023-12-14T05:10:54;99508.34;;;6.97;66.93
68654;BME280;55636;51.108;13.622;2023-12-14T05:11:56;99513.84;;;6.97;67.01
68654;BME280;55636;51.108;13.622;2023-12-14T05:12:59;99515.75;;;6.97;67.14
68654;BME280;55636;51.108;13.622;2023-12-14T05:14:01;99515.75;;;6.97;67.17
68654;BME280;55636;51.108;13.622;2023-12-14T05:15:05;99516.59;;;6.97;67.08
68654;BME280;55636;51.108;13.622;2023-12-14T05:16:13;99519.88;;;6.99;67.09
68654;BME280;55636;51.108;13.622;2023-12-14T05:17:16;99526.72;;;6.97;67.22
68654;BME280;55636;51.108;13.622;2023-12-14T05:18:19;99522.91;;;6.98;67.20
68654;BME280;55636;51.108;13.622;2023-12-14T05:19:21;99522.91;;;6.98;67.05
68654;BME280;55636;51.108;13.622;2023-12-14T05:20:24;99526.72;;;6.97;67.25
68654;BME280;55636;51.108;13.622;2023-12-14T05:21:26;99531.13;;;6.98;67.25
68654;BME280;55636;51.108;13.622;2023-12-14T05:22:29;99536.63;;;6.98;67.29
68654;BME280;55636;51.108;13.622;2023-12-14T05:23:32;99533.06;;;6.97;67.35
68654;BME280;55636;51.108;13.622;2023-12-14T05:24:35;99536.63;;;6.98;67.36
68654;BME280;55636;51.108;13.622;2023-12-14T05:25:40;99540.22;;;6.98;67.40
68654;BME280;55636;51.108;13.622;2023-12-14T05:26:42;99542.13;;;6.98;67.28
68654;BME280;55636;51.108;13.622;2023-12-14T05:27:44;99546.53;;;6.99;67.43
68654;BME280;55636;51.108;13.622;2023-12-14T05:28:47;99546.53;;;6.99;67.37
68654;BME280;55636;51.108;13.622;2023-12-14T05:29:49;99540.22;;;6.98;67.43
68654;BME280;55636;51.108;13.622;2023-12-14T05:30:52;99549.28;;;6.99;67.48
68654;BME280;55636;51.108;13.622;2023-12-14T05:31:54;99546.25;;;7.00;67.48
68654;BME280;55636;51.108;13.622;2023-12-14T05:32:56;99552.03;;;6.99;67.50